createdAt,value
2022-09-12T00:01:25.458Z,13.77
2022-09-12T00:03:58.242Z,14.10
2022-09-12T00:06:26.472Z,14.60
2022-09-12T00:08:57.964Z,14.48
2022-09-12T00:11:25.985Z,14.88
2022-09-12T00:13:57.195Z,14.32
2022-09-12T00:16:26.568Z,13.30
2022-09-12T00:18:55.187Z,14.95
2022-09-12T00:21:22.695Z,15.73
2022-09-12T00:23:50.659Z,15.80
2022-09-12T00:26:18.620Z,15.38
2022-09-12T00:28:46.971Z,16.08
2022-09-12T00:31:17.184Z,16.80
2022-09-12T00:33:44.883Z,15.40
2022-09-12T00:36:14.936Z,17.00
2022-09-12T00:38:44.261Z,16.83
2022-09-12T00:41:17.153Z,16.88
2022-09-12T00:43:46.914Z,17.27
2022-09-12T00:46:56.749Z,16.40
2022-09-12T00:49:43.859Z,15.95
2022-09-12T00:52:17.060Z,18.42
2022-09-12T00:55:00.411Z,19.45
2022-09-12T00:57:32.662Z,19.15
2022-09-12T01:00:11.458Z,19.17
2022-09-12T01:02:38.540Z,18.73
2022-09-12T01:05:07.480Z,20.38
2022-09-12T01:07:40.092Z,18.25
2022-09-12T01:10:26.088Z,18.70
2022-09-12T01:12:52.953Z,17.67
2022-09-12T01:15:19.757Z,18.88
2022-09-12T01:17:52.737Z,15.55
2022-09-12T01:21:00.112Z,16.70
2022-09-12T01:23:31.188Z,15.82
2022-09-12T01:26:19.521Z,15.35
2022-09-12T01:29:00.175Z,15.73
2022-09-12T01:31:38.554Z,16.77
2022-09-12T01:34:20.708Z,16.33
2022-09-12T01:36:56.311Z,15.45
2022-09-12T01:39:29.009Z,16.55
2022-09-12T01:42:31.391Z,17.13
2022-09-12T01:45:26.111Z,15.90
2022-09-12T01:48:01.308Z,15.07
2022-09-12T01:51:07.459Z,14.60
2022-09-12T01:53:50.487Z,15.30
2022-09-12T01:56:26.810Z,16.20
2022-09-12T01:59:05.231Z,14.57
2022-09-12T02:01:35.609Z,12.88
2022-09-12T02:04:30.021Z,14.43
2022-09-12T02:07:07.549Z,14.15
2022-09-12T02:09:49.367Z,13.18
2022-09-12T02:12:20.276Z,13.75
2022-09-12T02:14:53.899Z,13.50
2022-09-12T02:17:24.159Z,12.85
2022-09-12T02:20:00.949Z,13.57
2022-09-12T02:22:31.727Z,12.80
2022-09-12T02:25:01.175Z,12.30
2022-09-12T02:27:32.752Z,12.18
2022-09-12T02:30:00.908Z,12.27
2022-09-12T02:32:42.492Z,10.57
2022-09-12T02:35:31.195Z,11.25
2022-09-12T02:38:06.422Z,10.82
2022-09-12T02:40:36.060Z,10.80
2022-09-12T02:43:05.494Z,11.40
2022-09-12T02:45:34.479Z,12.40
2022-09-12T02:48:24.571Z,11.93
2022-09-12T02:50:51.793Z,10.98
2022-09-12T02:53:19.063Z,11.05
2022-09-12T02:55:46.195Z,10.85
2022-09-12T02:58:21.156Z,11.05
2022-09-12T03:00:54.357Z,10.88
2022-09-12T03:03:25.944Z,11.32
2022-09-12T03:06:06.712Z,10.68
2022-09-12T03:09:03.122Z,9.80
2022-09-12T03:11:51.886Z,11.25
2022-09-12T03:14:30.774Z,10.13
2022-09-12T03:17:35.350Z,10.88
2022-09-12T03:20:35.631Z,11.00
2022-09-12T03:23:37.399Z,9.90
2022-09-12T03:26:17.034Z,10.00
2022-09-12T03:28:48.587Z,9.05
2022-09-12T03:31:19.717Z,9.43
2022-09-12T03:33:46.571Z,9.40
2022-09-12T03:36:19.557Z,9.32
2022-09-12T03:38:46.692Z,9.68
2022-09-12T03:41:13.602Z,9.18
2022-09-12T03:43:40.435Z,8.98
2022-09-12T03:46:07.483Z,8.75
2022-09-12T03:48:35.020Z,8.50
2022-09-12T03:51:09.575Z,9.65
2022-09-12T03:53:36.508Z,9.38
2022-09-12T03:56:09.140Z,8.77
2022-09-12T03:59:13.655Z,8.57
2022-09-12T04:01:41.932Z,8.95
2022-09-12T04:04:09.125Z,8.55
2022-09-12T04:06:35.959Z,9.18
2022-09-12T04:09:05.504Z,9.10
2022-09-12T04:11:32.305Z,8.90
2022-09-12T04:13:59.394Z,9.52
2022-09-12T04:16:26.306Z,9.60
2022-09-12T04:18:54.744Z,9.20
2022-09-12T04:21:22.215Z,8.95
2022-09-12T04:23:49.351Z,8.77
2022-09-12T04:26:22.460Z,9.40
2022-09-12T04:28:55.090Z,8.25
2022-09-12T04:31:23.467Z,9.87
2022-09-12T04:33:57.355Z,10.15
2022-09-12T04:36:25.621Z,8.77
2022-09-12T04:38:56.452Z,9.82
2022-09-12T04:41:26.433Z,8.65
2022-09-12T04:43:55.588Z,10.02
2022-09-12T04:46:22.575Z,10.13
2022-09-12T04:49:28.414Z,9.52
2022-09-12T04:51:55.497Z,9.68
2022-09-12T04:54:22.351Z,10.50
2022-09-12T04:56:50.417Z,10.00
2022-09-12T04:59:20.574Z,9.88
2022-09-12T05:01:48.425Z,9.68
2022-09-12T05:04:15.747Z,9.75
2022-09-12T05:06:43.336Z,9.73
2022-09-12T05:09:14.367Z,10.07
2022-09-12T05:14:31.433Z,10.40
2022-09-12T05:17:00.781Z,9.68
2022-09-12T05:19:28.715Z,9.45
2022-09-12T05:21:56.245Z,10.18
2022-09-12T05:24:23.119Z,9.00
2022-09-12T05:26:50.039Z,10.23
2022-09-12T05:29:16.900Z,9.60
2022-09-12T05:31:43.759Z,9.00
2022-09-12T05:34:11.328Z,8.88
2022-09-12T05:36:38.612Z,9.82
2022-09-12T05:39:06.068Z,9.98
2022-09-12T05:41:34.863Z,9.20
2022-09-12T05:44:06.914Z,8.73
2022-09-12T05:46:39.283Z,9.60
2022-09-12T05:49:25.842Z,8.85
2022-09-12T05:51:52.735Z,8.57
2022-09-12T05:54:20.704Z,8.80
2022-09-12T05:56:48.880Z,9.25
2022-09-12T05:59:20.180Z,8.73
2022-09-12T06:01:47.804Z,8.63
2022-09-12T06:04:15.243Z,8.65
2022-09-12T06:06:45.107Z,8.65
2022-09-12T06:09:15.292Z,8.27
2022-09-12T06:11:42.972Z,8.20
2022-09-12T06:14:12.252Z,8.02
2022-09-12T06:16:39.530Z,7.72
2022-09-12T06:19:15.044Z,7.90
2022-09-12T06:21:41.928Z,7.57
2022-09-12T06:24:08.821Z,7.00
2022-09-12T06:26:36.078Z,6.55
2022-09-12T06:29:05.519Z,7.10
2022-09-12T06:31:34.468Z,7.28
2022-09-12T06:34:04.796Z,7.22
2022-09-12T06:36:43.359Z,7.97
2022-09-12T06:39:23.142Z,7.32
2022-09-12T06:41:51.452Z,7.05
2022-09-12T06:44:22.708Z,6.57
2022-09-12T06:46:49.886Z,6.85
2022-09-12T06:49:17.812Z,6.40
2022-09-12T06:51:44.875Z,6.13
2022-09-12T06:54:17.146Z,6.05
2022-09-12T06:56:44.871Z,6.60
2022-09-12T06:59:13.047Z,6.05
2022-09-12T07:01:41.062Z,5.30
2022-09-12T07:04:08.480Z,5.03
2022-09-12T07:06:38.397Z,5.25
2022-09-12T07:09:07.948Z,5.72
2022-09-12T07:11:37.034Z,5.05
2022-09-12T07:14:05.662Z,5.30
2022-09-12T07:16:32.761Z,4.82
2022-09-12T07:19:19.660Z,5.38
2022-09-12T07:21:46.688Z,4.70
2022-09-12T07:24:13.756Z,4.88
2022-09-12T07:26:42.220Z,5.05
2022-09-12T07:29:36.067Z,5.05
2022-09-12T07:32:04.121Z,5.25
2022-09-12T07:34:31.004Z,4.43
2022-09-12T07:36:58.713Z,4.85
2022-09-12T07:39:26.000Z,4.63
2022-09-12T07:41:52.841Z,4.25
2022-09-12T07:44:19.647Z,4.47
2022-09-12T07:46:46.500Z,4.40
2022-09-12T07:49:13.648Z,4.10
2022-09-12T07:51:41.170Z,4.50
2022-09-12T07:54:09.313Z,4.00
2022-09-12T07:56:39.139Z,4.35
2022-09-12T07:59:10.240Z,4.47
2022-09-12T08:01:37.299Z,4.05
2022-09-12T08:04:05.174Z,4.60
2022-09-12T08:06:33.867Z,4.38
2022-09-12T08:09:05.206Z,3.92
2022-09-12T08:11:32.261Z,3.63
2022-09-12T08:14:00.042Z,3.63
2022-09-12T08:16:31.079Z,4.20
2022-09-12T08:19:00.527Z,3.85
2022-09-12T08:21:30.967Z,3.40
2022-09-12T08:24:02.904Z,4.10
2022-09-12T08:26:30.789Z,3.47
2022-09-12T08:28:57.936Z,3.53
2022-09-12T08:31:26.835Z,3.72
2022-09-12T08:33:56.688Z,3.35
2022-09-12T08:36:26.092Z,3.58
2022-09-12T08:39:00.222Z,3.90
2022-09-12T08:41:46.539Z,3.28
2022-09-12T08:44:39.323Z,3.45
2022-09-12T08:47:23.883Z,3.70
2022-09-12T08:50:10.204Z,3.42
2022-09-12T08:53:03.264Z,3.42
2022-09-12T08:55:39.023Z,3.33
2022-09-12T08:58:17.058Z,2.60
2022-09-12T09:01:07.403Z,3.22
2022-09-12T09:03:37.171Z,3.42
2022-09-12T09:06:23.186Z,3.45
2022-09-12T09:09:31.171Z,3.15
2022-09-12T09:11:57.966Z,3.83
2022-09-12T09:14:48.980Z,3.40
2022-09-12T09:17:40.648Z,3.58
2022-09-12T09:20:36.319Z,3.88
2022-09-12T09:23:21.423Z,3.92
2022-09-12T09:25:55.062Z,3.10
2022-09-12T09:28:48.144Z,3.03
2022-09-12T09:31:17.168Z,2.97
2022-09-12T09:33:46.479Z,3.30
2022-09-12T09:36:54.782Z,3.30
2022-09-12T09:39:58.101Z,3.13
2022-09-12T09:43:02.288Z,3.10
2022-09-12T09:48:20.910Z,2.90
2022-09-12T09:50:49.447Z,3.22
2022-09-12T09:53:28.353Z,3.20
2022-09-12T09:56:00.284Z,3.83
2022-09-12T09:58:34.162Z,3.60
2022-09-12T10:01:15.700Z,3.33
2022-09-12T10:03:51.914Z,3.53
2022-09-12T10:06:35.302Z,14.10
2022-09-12T10:09:18.906Z,4.45
2022-09-12T10:11:47.280Z,4.00
2022-09-12T10:14:41.301Z,4.50
2022-09-12T10:17:33.219Z,5.05
2022-09-12T10:20:22.822Z,4.15
2022-09-12T10:22:51.035Z,5.53
2022-09-12T10:25:20.431Z,5.30
2022-09-12T10:27:58.364Z,4.53
2022-09-12T10:30:28.993Z,5.47
2022-09-12T10:33:08.313Z,5.88
2022-09-12T10:35:48.643Z,6.10
2022-09-12T10:38:31.268Z,6.25
2022-09-12T10:41:06.522Z,6.75
2022-09-12T10:43:33.567Z,7.30
2022-09-12T10:46:28.830Z,7.10
2022-09-12T10:49:30.289Z,7.22
2022-09-12T10:52:15.519Z,6.68
2022-09-12T10:54:43.327Z,8.73
2022-09-12T10:57:32.062Z,6.90
2022-09-12T11:00:25.852Z,7.95
2022-09-12T11:03:16.634Z,6.63
2022-09-12T11:06:00.797Z,8.05
2022-09-12T11:08:48.701Z,7.35
2022-09-12T11:11:41.020Z,7.22
2022-09-12T11:14:30.038Z,8.10
2022-09-12T11:17:05.463Z,8.55
2022-09-12T11:20:02.829Z,8.57
2022-09-12T11:22:48.546Z,7.80
2022-09-12T11:25:57.432Z,6.95
2022-09-12T11:28:56.453Z,6.32
2022-09-12T11:31:55.260Z,6.68
2022-09-12T11:34:58.247Z,7.38
2022-09-12T11:37:43.891Z,6.55
2022-09-12T11:40:31.853Z,6.35
2022-09-12T11:43:07.703Z,6.45
2022-09-12T11:45:43.107Z,6.13
2022-09-12T11:48:20.689Z,5.07
2022-09-12T11:50:47.533Z,4.60
2022-09-12T11:53:23.916Z,4.07
2022-09-12T11:56:06.220Z,3.95
2022-09-12T11:58:33.652Z,3.47
2022-09-12T12:01:11.443Z,3.38
2022-09-12T12:03:43.718Z,3.03
2022-09-12T12:06:34.116Z,2.47
2022-09-12T12:09:38.808Z,3.03
2022-09-12T12:12:11.535Z,3.28
2022-09-12T12:17:22.203Z,3.10
2022-09-12T12:20:04.742Z,2.95
2022-09-12T12:22:32.812Z,3.53
2022-09-12T12:25:03.662Z,3.63
2022-09-12T12:28:01.782Z,3.72
2022-09-12T12:30:53.869Z,2.78
2022-09-12T12:33:20.733Z,2.38
2022-09-12T12:35:59.867Z,2.50
2022-09-12T12:38:40.885Z,2.40
2022-09-12T12:41:16.751Z,2.33
2022-09-12T12:43:44.268Z,2.75
2022-09-12T12:46:13.349Z,2.20
2022-09-12T12:49:19.731Z,2.45
2022-09-12T12:52:01.196Z,2.55
2022-09-12T12:54:52.654Z,2.97
2022-09-12T12:57:39.898Z,2.70
2022-09-12T13:00:44.580Z,2.92
2022-09-12T13:03:28.644Z,2.50
2022-09-12T13:06:05.407Z,2.10
2022-09-12T13:08:36.097Z,2.78
2022-09-12T13:11:05.347Z,2.42
2022-09-12T13:13:35.516Z,2.33
2022-09-12T13:16:02.572Z,2.20
2022-09-12T13:19:11.519Z,2.65
2022-09-12T13:21:55.082Z,2.65
2022-09-12T13:24:23.478Z,3.28
2022-09-12T13:26:50.401Z,2.80
2022-09-12T13:29:36.504Z,3.00
2022-09-12T13:32:03.747Z,2.70
2022-09-12T13:34:36.374Z,2.58
2022-09-12T13:37:22.003Z,2.65
2022-09-12T13:39:55.489Z,2.53
2022-09-12T13:42:28.347Z,2.10
2022-09-12T13:45:06.115Z,2.60
2022-09-12T13:47:58.742Z,2.45
2022-09-12T13:50:31.832Z,2.92
2022-09-12T13:53:07.008Z,2.50
2022-09-12T13:55:39.168Z,2.83
2022-09-12T13:58:21.594Z,2.33
2022-09-12T14:03:49.366Z,2.40
2022-09-12T14:06:18.237Z,2.40
2022-09-12T14:08:47.976Z,2.63
2022-09-12T14:11:30.192Z,2.50
2022-09-12T14:13:58.303Z,2.25
2022-09-12T14:16:28.999Z,2.25
2022-09-12T14:19:00.078Z,2.38
2022-09-12T14:21:34.480Z,2.20
2022-09-12T14:24:04.767Z,2.40
2022-09-12T14:26:35.508Z,1.80
2022-09-12T14:29:42.045Z,2.13
2022-09-12T14:32:23.408Z,2.50
2022-09-12T14:35:12.212Z,2.42
2022-09-12T14:37:40.397Z,2.08
2022-09-12T14:40:22.286Z,2.38
2022-09-12T14:42:51.483Z,2.47
2022-09-12T14:45:28.827Z,2.55
2022-09-12T14:47:56.843Z,2.15
2022-09-12T14:50:26.486Z,2.83
2022-09-12T14:53:18.235Z,2.20
2022-09-12T14:56:07.070Z,2.08
2022-09-12T14:58:34.518Z,2.03
2022-09-12T15:01:21.280Z,1.90
2022-09-12T15:03:49.991Z,2.50
2022-09-12T15:06:23.216Z,2.00
2022-09-12T15:08:52.381Z,2.35
2022-09-12T15:11:19.174Z,2.20
2022-09-12T15:13:46.107Z,2.55
2022-09-12T15:16:13.342Z,2.20
2022-09-12T15:18:40.392Z,2.20
2022-09-12T15:21:11.480Z,2.03
2022-09-12T15:23:41.821Z,2.42
2022-09-12T15:26:13.197Z,2.33
2022-09-12T15:28:40.808Z,2.30
2022-09-12T15:31:30.485Z,2.42
2022-09-12T15:33:59.073Z,2.83
2022-09-12T15:36:26.423Z,2.63
2022-09-12T15:38:53.599Z,2.65
2022-09-12T15:41:31.228Z,2.80
2022-09-12T15:43:58.568Z,2.47
2022-09-12T15:46:25.448Z,2.90
2022-09-12T15:48:52.554Z,2.92
2022-09-12T15:51:21.491Z,2.60
2022-09-12T15:53:49.786Z,2.85
2022-09-12T15:56:18.895Z,2.67
2022-09-12T15:58:58.116Z,2.95
2022-09-12T16:01:26.522Z,2.97
2022-09-12T16:03:53.496Z,2.75
2022-09-12T16:06:20.347Z,2.65
2022-09-12T16:08:48.895Z,2.90
2022-09-12T16:11:23.740Z,2.97
2022-09-12T16:13:52.647Z,3.35
2022-09-12T16:16:19.771Z,2.92
2022-09-12T16:18:47.249Z,2.95
2022-09-12T16:21:15.687Z,3.08
2022-09-12T16:23:44.117Z,3.03
2022-09-12T16:26:11.404Z,3.08
2022-09-12T16:28:38.946Z,3.05
2022-09-12T16:31:07.694Z,3.10
2022-09-12T16:33:35.010Z,3.55
2022-09-12T16:36:04.847Z,3.20
2022-09-12T16:39:09.358Z,3.33
2022-09-12T16:41:36.200Z,3.10
2022-09-12T16:44:03.206Z,3.63
2022-09-12T16:46:30.266Z,3.15
2022-09-12T16:48:58.772Z,3.33
2022-09-12T16:51:32.968Z,3.35
2022-09-12T16:53:59.891Z,3.50
2022-09-12T16:56:26.835Z,3.40
2022-09-12T16:59:16.772Z,3.20
2022-09-12T17:01:45.247Z,3.00
2022-09-12T17:04:12.225Z,3.67
2022-09-12T17:06:39.090Z,3.67
2022-09-12T17:09:06.453Z,3.13
2022-09-12T17:11:38.382Z,3.40
2022-09-12T17:14:07.442Z,3.25
2022-09-12T17:16:36.688Z,3.25
2022-09-12T17:19:06.089Z,3.35
2022-09-12T17:21:33.356Z,3.90
2022-09-12T17:24:00.748Z,3.88
2022-09-12T17:26:27.609Z,3.08
2022-09-12T17:29:19.720Z,3.17
2022-09-12T17:31:46.690Z,3.40
2022-09-12T17:34:17.700Z,3.95
2022-09-12T17:36:45.586Z,3.28
2022-09-12T17:39:13.962Z,3.90
2022-09-12T17:41:47.147Z,4.20
2022-09-12T17:44:15.289Z,4.03
2022-09-12T17:46:42.997Z,4.55
2022-09-12T17:49:14.252Z,4.63
2022-09-12T17:51:41.843Z,5.10
2022-09-12T17:54:12.169Z,4.85
2022-09-12T17:56:39.707Z,4.65
2022-09-12T17:59:13.123Z,5.43
2022-09-12T18:01:58.677Z,4.05
2022-09-12T18:04:27.114Z,4.40
2022-09-12T18:06:54.165Z,4.50
2022-09-12T18:09:25.156Z,4.30
2022-09-12T18:11:53.198Z,4.07
2022-09-12T18:14:20.363Z,4.80
2022-09-12T18:16:49.619Z,4.03
2022-09-12T18:19:53.814Z,4.50
2022-09-12T18:22:21.168Z,4.68
2022-09-12T18:24:48.037Z,4.25
2022-09-12T18:27:14.853Z,5.07
2022-09-12T18:30:20.538Z,4.28
2022-09-12T18:32:48.196Z,4.30
2022-09-12T18:35:15.268Z,4.75
2022-09-12T18:37:42.318Z,4.50
2022-09-12T18:40:33.092Z,4.88
2022-09-12T18:43:00.585Z,5.00
2022-09-12T18:45:27.610Z,4.45
2022-09-12T18:47:55.300Z,4.85
2022-09-12T18:50:24.539Z,5.28
2022-09-12T18:52:59.096Z,4.95
2022-09-12T18:55:26.883Z,5.78
2022-09-12T18:57:55.521Z,5.65
2022-09-12T19:00:22.841Z,6.88
2022-09-12T19:02:49.669Z,6.22
2022-09-12T19:05:16.679Z,5.95
2022-09-12T19:07:43.569Z,5.95
2022-09-12T19:11:12.812Z,5.82
2022-09-12T19:13:41.784Z,6.40
2022-09-12T19:16:12.886Z,6.07
2022-09-12T19:19:40.482Z,6.22
2022-09-12T19:22:07.735Z,6.50
2022-09-12T19:24:35.314Z,6.65
2022-09-12T19:27:02.262Z,5.95
2022-09-12T19:29:29.527Z,5.65
2022-09-12T19:31:56.717Z,6.15
2022-09-12T19:34:23.857Z,6.05
2022-09-12T19:36:50.736Z,5.85
2022-09-12T19:39:19.748Z,5.38
2022-09-12T19:41:48.069Z,5.93
2022-09-12T19:44:15.159Z,5.75
2022-09-12T19:46:43.426Z,5.32
2022-09-12T19:49:14.712Z,6.55
2022-09-12T19:51:41.707Z,6.32
2022-09-12T19:54:09.101Z,5.28
2022-09-12T19:56:36.009Z,5.35
2022-09-12T19:59:03.057Z,5.80
2022-09-12T20:01:30.024Z,5.50
2022-09-12T20:03:58.678Z,5.75
2022-09-12T20:06:26.871Z,5.85
2022-09-12T20:08:55.420Z,5.93
2022-09-12T20:11:24.047Z,6.65
2022-09-12T20:13:51.988Z,5.70
2022-09-12T20:16:23.133Z,6.38
2022-09-12T20:19:10.252Z,6.40
2022-09-12T20:21:37.349Z,7.07
2022-09-12T20:24:10.969Z,7.10
2022-09-12T20:26:38.510Z,6.13
2022-09-12T20:29:10.555Z,6.55
2022-09-12T20:31:39.657Z,6.20
2022-09-12T20:34:07.471Z,6.70
2022-09-12T20:36:34.482Z,5.97
2022-09-12T20:39:04.863Z,6.03
2022-09-12T20:41:34.185Z,6.80
2022-09-12T20:44:01.820Z,6.38
2022-09-12T20:46:29.022Z,6.50
2022-09-12T20:49:15.636Z,6.78
2022-09-12T20:51:42.933Z,6.20
2022-09-12T20:54:10.892Z,7.20
2022-09-12T20:56:38.105Z,5.68
2022-09-12T20:59:11.535Z,5.80
2022-09-12T21:01:38.895Z,5.72
2022-09-12T21:04:05.768Z,6.07
2022-09-12T21:06:32.708Z,6.28
2022-09-12T21:09:00.908Z,6.03
2022-09-12T21:11:29.030Z,6.90
2022-09-12T21:13:56.094Z,6.53
2022-09-12T21:16:23.643Z,5.40
2022-09-12T21:18:59.427Z,5.57
2022-09-12T21:21:26.927Z,5.60
2022-09-12T21:23:57.366Z,4.93
2022-09-12T21:26:24.444Z,5.32
2022-09-12T21:28:53.519Z,4.40
2022-09-12T21:31:20.508Z,4.15
2022-09-12T21:33:47.465Z,4.78
2022-09-12T21:36:14.484Z,4.63
2022-09-12T21:38:45.491Z,4.47
2022-09-12T21:41:14.721Z,4.78
2022-09-12T21:43:41.880Z,4.93
2022-09-12T21:46:09.801Z,4.38
2022-09-12T21:48:37.492Z,4.10
2022-09-12T21:51:04.888Z,4.20
2022-09-12T21:53:32.180Z,4.10
2022-09-12T21:56:07.757Z,4.30
2022-09-12T21:59:01.398Z,4.60
2022-09-12T22:01:28.257Z,4.57
2022-09-12T22:03:55.158Z,4.88
2022-09-12T22:06:22.715Z,4.35
2022-09-12T22:08:50.709Z,4.35
2022-09-12T22:11:20.586Z,4.50
2022-09-12T22:13:47.434Z,4.90
2022-09-12T22:16:14.297Z,5.00
2022-09-12T22:18:43.220Z,4.85
2022-09-12T22:21:14.956Z,4.57
2022-09-12T22:24:00.212Z,4.57
2022-09-12T22:26:27.526Z,4.85
2022-09-12T22:28:54.819Z,4.63
2022-09-12T22:31:22.402Z,4.60
2022-09-12T22:33:50.867Z,4.60
2022-09-12T22:36:18.243Z,4.57
2022-09-12T22:39:07.974Z,4.32
2022-09-12T22:41:34.843Z,4.70
2022-09-12T22:44:01.937Z,4.28
2022-09-12T22:46:30.031Z,4.28
2022-09-12T22:48:58.214Z,4.53
2022-09-12T22:51:25.433Z,4.25
2022-09-12T22:53:52.429Z,4.60
2022-09-12T22:56:19.245Z,4.63
2022-09-12T22:59:06.387Z,4.63
2022-09-12T23:01:34.410Z,4.90
2022-09-12T23:04:05.415Z,4.50
2022-09-12T23:06:32.311Z,5.30
2022-09-12T23:13:20.233Z,5.22
2022-09-12T23:15:47.138Z,4.68
2022-09-12T23:18:13.960Z,4.68
2022-09-12T23:21:34.014Z,4.45
2022-09-12T23:24:01.092Z,5.13
2022-09-12T23:26:28.349Z,4.60
2022-09-12T23:29:14.287Z,4.43
2022-09-12T23:31:41.678Z,4.80
2022-09-12T23:34:10.256Z,5.00
2022-09-12T23:36:37.287Z,4.40
2022-09-12T23:39:04.978Z,5.07
2022-09-12T23:41:31.838Z,5.07
2022-09-12T23:43:58.960Z,4.95
2022-09-12T23:46:25.949Z,4.97
2022-09-12T23:49:31.676Z,4.82
2022-09-12T23:51:58.615Z,5.18
2022-09-12T23:54:25.508Z,5.10
2022-09-12T23:56:52.471Z,5.15
2022-09-12T23:59:24.432Z,5.03
